Date,TemperatureHighF,TemperatureAvgF,TemperatureLowF,DewpointHighF,DewpointAvgF,DewpointLowF,HumidityHigh,HumidityAvg,HumidityLow,PressureMaxIn,PressureMinIn,WindSpeedMaxMPH,WindSpeedAvgMPH,GustSpeedMaxMPH,PrecipitationSumIn
2013-1-1,34.3,26.3,18.7,21.9,14.9,8.3,63,59,53,0.00,40.00,0,-999,0,0.00
2013-1-2,35.8,25.9,15.1,18.2,11.8,3.2,57,52,48,0.00,40.00,0,-999,0,0.00
2013-1-3,34.3,25.0,15.3,15.8,9.6,3.3,57,48,43,0.00,40.00,0,-999,0,0.00
2013-1-4,37.1,28.0,22.1,17.2,11.2,6.1,49,46,44,0.00,40.00,0,-999,0,0.00
2013-1-5,36.3,25.4,19.2,18.5,11.5,6.5,57,52,48,0.00,40.00,0,-999,0,0.00
2013-1-6,40.1,31.9,19.9,19.4,14.9,7.1,56,47,42,0.00,40.00,0,-999,0,0.00
2013-1-7,42.1,33.3,23.4,22.3,17.1,10.0,54,49,44,0.00,40.00,0,-999,0,0.00
2013-1-8,47.5,39.2,29.0,24.3,19.2,12.7,51,44,38,0.00,40.00,0,-999,0,0.00
2013-1-9,47.1,40.2,27.9,22.8,19.7,13.4,51,43,38,0.00,40.00,0,-999,0,0.00
2013-1-10,49.1,34.0,20.4,27.0,19.1,10.7,67,54,39,0.00,40.00,0,-999,0,0.00
2013-1-11,20.3,13.4,9.4,10.9,4.2,-0.3,70,63,59,0.00,40.00,0,-999,0,0.00
2013-1-12,19.2,11.1,2.4,7.7,1.1,-7.0,61,60,56,0.00,40.00,0,-999,0,0.00
2013-1-13,21.9,12.6,7.0,10.4,2.1,-2.5,61,59,55,0.00,40.00,0,-999,0,0.00
2013-1-14,21.2,15.9,8.6,8.3,3.9,-2.0,58,55,51,0.00,40.00,0,-999,0,0.00
2013-1-15,31.7,24.4,18.7,19.0,13.1,6.6,61,58,54,0.00,40.00,0,-999,0,0.00
2013-1-16,40.5,31.7,24.8,23.3,17.9,13.5,58,54,49,0.00,40.00,0,-999,0,0.00
2013-1-17,42.3,32.3,24.1,24.5,17.4,12.5,58,52,47,0.00,40.00,0,-999,0,0.00
2013-1-18,52.4,38.3,31.6,27.6,19.6,15.6,51,47,38,0.00,40.00,0,-999,0,0.00
2013-1-19,40.9,33.2,25.5,23.1,18.5,14.3,65,53,47,0.00,40.00,0,-999,0,0.00
2013-1-21,24.6,21.4,18.2,13.3,10.7,8.4,62,59,58,0.00,40.00,0,-999,0,0.00
2013-1-22,45.0,29.7,16.0,26.0,15.9,6.7,66,55,45,0.00,40.00,0,-999,0,0.00
2013-1-23,31.8,24.3,18.5,17.5,12.9,10.2,67,58,50,0.00,40.00,0,-999,0,0.00
2013-1-24,51.2,35.4,21.4,31.1,20.3,11.9,64,53,43,0.00,40.00,0,-999,0,0.00